地図

経路データ

SID SEASON NUMBER BASIN SUBBASIN NAME ISO_TIME NATURE LAT LON WMO_WIND WMO_PRES WMO_AGENCY TRACK_TYPE DIST2LAND LANDFALL IFLAG USA_AGENCY USA_ATCF_ID USA_LAT USA_LON USA_RECORD USA_STATUS USA_WIND USA_PRES USA_SSHS USA_R34_NE USA_R34_SE USA_R34_SW USA_R34_NW USA_R50_NE USA_R50_SE USA_R50_SW USA_R50_NW USA_R64_NE USA_R64_SE USA_R64_SW USA_R64_NW USA_POCI USA_ROCI USA_RMW USA_EYE TOKYO_LAT TOKYO_LON TOKYO_GRADE TOKYO_WIND TOKYO_PRES TOKYO_R50_DIR TOKYO_R50_LONG TOKYO_R50_SHORT TOKYO_R30_DIR TOKYO_R30_LONG TOKYO_R30_SHORT TOKYO_LAND CMA_LAT CMA_LON CMA_CAT CMA_WIND CMA_PRES HKO_LAT HKO_LON HKO_CAT HKO_WIND HKO_PRES NEWDELHI_LAT NEWDELHI_LON NEWDELHI_GRADE NEWDELHI_WIND NEWDELHI_PRES NEWDELHI_CI NEWDELHI_DP NEWDELHI_POCI REUNION_LAT REUNION_LON REUNION_TYPE REUNION_WIND REUNION_PRES REUNION_TNUM REUNION_CI REUNION_RMW REUNION_R34_NE REUNION_R34_SE REUNION_R34_SW REUNION_R34_NW REUNION_R50_NE REUNION_R50_SE REUNION_R50_SW REUNION_R50_NW REUNION_R64_NE REUNION_R64_SE REUNION_R64_SW REUNION_R64_NW BOM_LAT BOM_LON BOM_TYPE BOM_WIND BOM_PRES BOM_TNUM BOM_CI BOM_RMW BOM_R34_NE BOM_R34_SE BOM_R34_SW BOM_R34_NW BOM_R50_NE BOM_R50_SE BOM_R50_SW BOM_R50_NW BOM_R64_NE BOM_R64_SE BOM_R64_SW BOM_R64_NW BOM_ROCI BOM_POCI BOM_EYE BOM_POS_METHOD BOM_PRES_METHOD NADI_LAT NADI_LON NADI_CAT NADI_WIND NADI_PRES WELLINGTON_LAT WELLINGTON_LON WELLINGTON_WIND WELLINGTON_PRES DS824_LAT DS824_LON DS824_STAGE DS824_WIND DS824_PRES TD9636_LAT TD9636_LON TD9636_STAGE TD9636_WIND TD9636_PRES TD9635_LAT TD9635_LON TD9635_WIND TD9635_PRES TD9635_ROCI NEUMANN_LAT NEUMANN_LON NEUMANN_CLASS NEUMANN_WIND NEUMANN_PRES MLC_LAT MLC_LON MLC_CLASS MLC_WIND MLC_PRES USA_GUST BOM_GUST BOM_GUST_PER REUNION_GUST REUNION_GUST_PER USA_SEAHGT USA_SEARAD_NE USA_SEARAD_SE USA_SEARAD_SW USA_SEARAD_NW STORM_SPEED STORM_DIR
2022145N10267 2022 28 EP MM AGATHA 2022-05-25 00:00:00 NR 9.80000 -93.3000 PROVISIONAL 508 492 O_____________ nhc_working_bt EP012022 9.80000 -93.3000 DB 15 -3 5 339
2022145N10267 2022 28 EP MM AGATHA 2022-05-25 03:00:00 NR 10.0525 -93.4000 PROVISIONAL 483 468 P_____________ EP012022 10.0525 -93.4000 DB 15 -3 5 338
2022145N10267 2022 28 EP MM AGATHA 2022-05-25 06:00:00 NR 10.3000 -93.5000 PROVISIONAL 468 455 O_____________ nhc_working_bt EP012022 10.3000 -93.5000 DB 15 -3 5 338
2022145N10267 2022 28 EP MM AGATHA 2022-05-25 09:00:00 NR 10.5425 -93.6000 PROVISIONAL 455 433 P_____________ EP012022 10.5425 -93.6000 DB 20 -3 5 338
2022145N10267 2022 28 EP MM AGATHA 2022-05-25 12:00:00 NR 10.8000 -93.7000 PROVISIONAL 433 409 O_____________ nhc_working_bt EP012022 10.8000 -93.7000 DB 25 -3 1011 180 130 6 340
2022145N10267 2022 28 EP MM AGATHA 2022-05-25 15:00:00 NR 11.1000 -93.8075 PROVISIONAL 409 387 P_____________ EP012022 11.1000 -93.8075 DB 25 -3 1011 180 130 6 342
2022145N10267 2022 28 EP MM AGATHA 2022-05-25 18:00:00 NR 11.4000 -93.9000 PROVISIONAL 387 367 O_____________ nhc_working_bt EP012022 11.4000 -93.9000 DB 25 1009 -3 1011 180 130 6 346
2022145N10267 2022 28 EP MM AGATHA 2022-05-25 21:00:00 NR 11.6800 -93.9575 PROVISIONAL 367 350 P_____________ EP012022 11.6800 -93.9575 DB 25 1009 -3 1011 180 130 5 349
2022145N10267 2022 28 EP MM AGATHA 2022-05-26 00:00:00 NR 11.9000 -94.0000 PROVISIONAL 350 341 O_____________ nhc_working_bt EP012022 11.9000 -94.0000 DB 25 1009 -3 1011 180 130 4 346
2022145N10267 2022 28 EP MM AGATHA 2022-05-26 03:00:00 NR 12.0300 -94.0500 PROVISIONAL 347 338 P_____________ EP012022 12.0300 -94.0500 DB 25 1009 -3 1011 180 130 2 333
2022145N10267 2022 28 EP MM AGATHA 2022-05-26 06:00:00 NR 12.1000 -94.1000 PROVISIONAL 338 338 O_____________ nhc_working_bt EP012022 12.1000 -94.1000 DB 25 1009 -3 1011 180 130 1 327
2022145N10267 2022 28 EP MM AGATHA 2022-05-26 09:00:00 NR 12.1500 -94.1350 PROVISIONAL 338 329 P_____________ EP012022 12.1500 -94.1350 DB 25 1009 -3 1011 180 130 1 317
2022145N10267 2022 28 EP MM AGATHA 2022-05-26 12:00:00 NR 12.2000 -94.2000 PROVISIONAL 336 335 O_____________ nhc_working_bt EP012022 12.2000 -94.2000 DB 25 1009 -3 1011 180 130 2 307
2022145N10267 2022 28 EP MM AGATHA 2022-05-26 15:00:00 NR 12.2925 -94.3275 PROVISIONAL 335 334 P_____________ EP012022 12.2925 -94.3275 DB 25 1009 -3 1011 180 100 4 304
2022145N10267 2022 28 EP MM AGATHA 2022-05-26 18:00:00 NR 12.4000 -94.5000 PROVISIONAL 342 342 O_____________ nhc_working_bt EP012022 12.4000 -94.5000 DB 25 1009 -3 1011 180 70 4 302
2022145N10267 2022 28 EP MM AGATHA 2022-05-26 21:00:00 NR 12.4999 -94.6700 PROVISIONAL 350 349 P_____________ EP012022 12.4999 -94.6700 DB 25 1008 -3 1010 180 70 4 297
2022145N10267 2022 28 EP MM AGATHA 2022-05-27 00:00:00 DS 12.6000 -94.9000 PROVISIONAL 357 352 O_____________ nhc_working_bt EP012022 12.6000 -94.9000 LO 25 1008 -3 1010 180 70 35 6 290
2022145N10267 2022 28 EP MM AGATHA 2022-05-27 03:00:00 DS 12.7000 -95.2200 PROVISIONAL 352 331 P_____________ EP012022 12.7000 -95.2200 LO 25 1008 -3 1010 165 70 7 286
2022145N10267 2022 28 EP MM AGATHA 2022-05-27 06:00:00 DS 12.8000 -95.6000 PROVISIONAL 331 309 O_____________ nhc_working_bt EP012022 12.8000 -95.6000 LO 25 1008 -3 1010 150 70 8 287
2022145N10267 2022 28 EP MM AGATHA 2022-05-27 09:00:00 DS 12.9224 -95.9849 PROVISIONAL 309 291 P_____________ EP012022 12.9224 -95.9849 LO 25 1008 -3 1010 150 70 8 284
2022145N10267 2022 28 EP MM AGATHA 2022-05-27 12:00:00 DS 13.0000 -96.4000 PROVISIONAL 291 291 O_____________ nhc_working_bt EP012022 13.0000 -96.4000 LO 25 1008 -3 1010 150 70 35 9 273
2022145N10267 2022 28 EP MM AGATHA 2022-05-27 15:00:00 DS 12.9726 -96.8801 PROVISIONAL 292 292 P_____________ EP012022 12.9726 -96.8801 LO 25 1008 -3 1010 150 65 9 263
2022145N10267 2022 28 EP MM AGATHA 2022-05-27 18:00:00 DS 12.9000 -97.3000 PROVISIONAL 311 311 O_____________ nhc_working_bt EP012022 12.9000 -97.3000 LO 25 1008 -3 1010 150 60 35 7 258
2022145N10267 2022 28 EP MM AGATHA 2022-05-27 21:00:00 DS 12.8349 -97.5525 PROVISIONAL 331 331 P_____________ EP012022 12.8349 -97.5525 LO 27 1007 -3 1010 150 50 4 256
2022145N10267 2022 28 EP MM AGATHA 2022-05-28 00:00:00 DS 12.8000 -97.7000 PROVISIONAL 335 335 O_____________ nhc_working_bt EP012022 12.8000 -97.7000 LO 30 1006 -3 1010 150 40 40 3 262
2022145N10267 2022 28 EP MM AGATHA 2022-05-28 03:00:00 DS 12.7975 -97.8288 PROVISIONAL 339 339 P_____________ EP012022 12.8200 -97.8225 LO 32 1005 -3 1010 150 35 3 279
2022145N10267 2022 28 EP MM AGATHA 2022-05-28 06:00:00 TS 12.8400 -97.9600 PROVISIONAL 347 337 O_____________ nhc_working_bt EP012022 12.9000 -97.9000 TS 35 1004 0 30 1010 150 30 40 3 299
2022145N10267 2022 28 EP MM AGATHA 2022-05-28 09:00:00 TS 12.9508 -98.1133 PROVISIONAL 332 327 P_____________ EP012022 13.0275 -97.9500 TS 37 1003 0 35 1009 150 30 4 321
2022145N10267 2022 28 EP MM AGATHA 2022-05-28 12:00:00 TS 13.1333 -98.2000 PROVISIONAL 327 292 O_____________ nhc_working_bt EP012022 13.2000 -98.0000 TS 40 1002 0 40 30 1009 150 30 50 4 0
2022145N10267 2022 28 EP MM AGATHA 2022-05-28 15:00:00 TS 13.3742 -98.1060 PROVISIONAL 292 270 P_____________ EP012022 13.4074 -98.0625 TS 45 1000 0 50 40 1009 150 25 5 16
2022145N10267 2022 28 EP MM AGATHA 2022-05-28 18:00:00 TS 13.6000 -98.0667 PROVISIONAL 270 259 O_____________ nhc_working_bt EP012022 13.6000 -98.2000 TS 50 998 0 60 50 30 60 20 1009 150 20 60 12 30 30 4 327
2022145N10267 2022 28 EP MM AGATHA 2022-05-28 21:00:00 TS 13.7227 -98.3416 PROVISIONAL 263 257 P_____________ EP012022 13.7226 -98.5000 TS 52 997 0 60 50 30 60 20 1009 150 20 12 45 45 6 289
2022145N10267 2022 28 EP MM AGATHA 2022-05-29 00:00:00 TS 13.8000 -98.6667 PROVISIONAL 264 258 O_____________ nhc_working_bt EP012022 13.8000 -98.8000 TS 55 996 0 60 50 30 60 20 20 1009 150 20 60 12 60 60 60 5 292
2022145N10267 2022 28 EP MM AGATHA 2022-05-29 03:00:00 TS 13.8958 -98.7917 PROVISIONAL 258 248 P_____________ EP012022 13.8574 -98.9375 TS 60 994 0 65 50 30 65 20 20 1009 150 20 12 60 67 60 3 311
2022145N10267 2022 28 EP MM AGATHA 2022-05-29 06:00:00 TS 13.9667 -98.8667 PROVISIONAL 253 253 O_____________ nhc_working_bt EP012022 13.9000 -99.0000 HU 65 993 1 70 50 30 70 20 20 20 10 1009 150 20 65 12 60 75 30 60 3 292
2022145N10267 2022 28 EP MM AGATHA 2022-05-29 09:00:00 TS 13.9909 -99.0325 PROVISIONAL 258 258 P_____________ EP012022 13.9575 -99.0800 HU 70 987 1 70 55 35 70 25 25 25 12 1008 150 15 12 60 82 37 75 3 277
2022145N10267 2022 28 EP MM AGATHA 2022-05-29 12:00:00 TS 14.0000 -99.1333 PROVISIONAL 263 263 O_____________ nhc_working_bt EP012022 14.0000 -99.1000 HU 75 981 1 70 60 40 70 30 30 20 30 15 15 11 1008 150 10 90 12 60 90 45 90 0 314
2022145N10267 2022 28 EP MM AGATHA 2022-05-29 15:00:00 TS 14.0183 -99.0691 PROVISIONAL 263 243 P_____________ EP012022 13.9850 -99.0300 HU 82 974 1 75 65 45 70 30 30 20 30 15 15 13 1008 150 10 2 74
2022145N10267 2022 28 EP MM AGATHA 2022-05-29 18:00:00 TS 14.0667 -98.9000 PROVISIONAL 243 223 O_____________ nhc_working_bt EP012022 14.0000 -98.9000 HU 90 967 2 80 70 50 70 30 30 20 30 15 15 11 15 1008 150 10 110 4 68
2022145N10267 2022 28 EP MM AGATHA 2022-05-29 21:00:00 TS 14.1658 -98.7008 PROVISIONAL 223 204 P_____________ EP012022 14.1274 -98.7800 HU 92 965 2 80 70 50 70 30 30 20 30 15 15 11 15 1008 150 7 5 61
2022145N10267 2022 28 EP MM AGATHA 2022-05-30 00:00:00 TS 14.3000 -98.4667 PROVISIONAL 204 186 O_____________ nhc_working_bt EP012022 14.3000 -98.6000 HU 95 964 2 80 70 50 70 30 30 20 30 15 15 11 15 1008 150 5 115 12 120 150 75 120 5 59
2022145N10267 2022 28 EP MM AGATHA 2022-05-30 03:00:00 TS 14.4300 -98.2458 PROVISIONAL 184 158 P_____________ EP012022 14.4350 -98.3224 HU 95 964 2 80 75 45 75 30 30 20 30 15 15 11 15 1008 145 5 12 120 150 82 120 5 56
2022145N10267 2022 28 EP MM AGATHA 2022-05-30 06:00:00 TS 14.6000 -98.0000 PROVISIONAL 158 134 O_____________ nhc_working_bt EP012022 14.6000 -98.0000 HU 95 964 2 80 80 40 80 30 30 20 30 15 15 11 15 1008 140 5 115 12 120 150 90 120 7 51
2022145N10267 2022 28 EP MM AGATHA 2022-05-30 09:00:00 TS 14.8500 -97.7026 PROVISIONAL 123 89 P_____________ EP012022 14.8500 -97.6926 HU 92 969 2 80 80 45 75 30 30 20 30 15 15 11 15 1008 140 5 12 120 150 105 120 8 49
2022145N10267 2022 28 EP MM AGATHA 2022-05-30 12:00:00 TS 15.1000 -97.4000 PROVISIONAL 89 70 O_____________ nhc_working_bt EP012022 15.1000 -97.4000 HU 90 974 2 80 80 50 70 30 30 20 30 15 15 11 15 1008 140 5 115 12 120 150 120 120 7 54
2022145N10267 2022 28 EP MM AGATHA 2022-05-30 15:00:00 TS 15.2499 -97.1423 PROVISIONAL 64 35 P_____________ EP012022 15.2499 -97.1423 HU 90 974 2 80 70 50 65 35 30 25 30 17 17 15 15 1008 130 5 12 120 150 135 135 6 58
2022145N10267 2022 28 EP MM AGATHA 2022-05-30 18:00:00 TS 15.4000 -96.9000 PROVISIONAL 35 10 O_____________ nhc_working_bt EP012022 15.4000 -96.9000 HU 90 974 2 80 60 50 60 40 30 30 30 20 20 20 15 1008 120 5 110 12 120 150 150 150 6 51
2022145N10267 2022 28 EP MM AGATHA 2022-05-30 21:00:00 TS 15.6274 -96.6574 PROVISIONAL 10 0 P_____________ EP012022 15.6274 -96.6574 HU 80 977 1 75 60 45 55 40 30 25 25 17 17 15 13 1007 120 7 12 105 150 150 120 7 44
2022145N10267 2022 28 EP MM AGATHA 2022-05-31 00:00:00 TS 15.9000 -96.4000 PROVISIONAL 0 0 O_____________ nhc_working_bt EP012022 15.9000 -96.4000 HU 70 981 1 70 60 40 50 40 30 20 20 15 15 11 11 1006 120 10 85 12 90 150 150 90 8 43
2022145N10267 2022 28 EP MM AGATHA 2022-05-31 03:00:00 TS 16.2000 -96.1000 PROVISIONAL 0 0 P_____________ EP012022 16.2000 -96.1000 HU 60 989 0 60 60 35 35 30 1007 105 10 8 44
2022145N10267 2022 28 EP MM AGATHA 2022-05-31 06:00:00 TS 16.5000 -95.8000 PROVISIONAL 0 0 O_____________ nhc_working_bt EP012022 16.5000 -95.8000 TS 50 998 0 50 60 30 20 30 1008 90 10 60 8 44
2022145N10267 2022 28 EP MM AGATHA 2022-05-31 09:00:00 TS 16.7625 -95.5376 PROVISIONAL 0 0 P_____________ EP012022 16.7625 -95.5376 TS 40 1001 0 25 30 15 10 1007 105 20 7 44
2022145N10267 2022 28 EP MM AGATHA 2022-05-31 12:00:00 TS 17.0000 -95.3000 PROVISIONAL 0 O_____________ nhc_working_bt EP012022 17.0000 -95.3000 TD 30 1004 -1 1007 120 30 40 7 44

IBTrACS Databaseについて

本データベースは、米国NOAAが公開する1842年以降の世界の熱帯低気圧のベストトラックデータアーカイブInternational Best Track Archive for Climate Stewardship (IBTrACS)を、ウェブで閲覧しやすい形式に変換したものです。

最終更新日:2022-07-01